sensor_id;sensor_type;location;lat;lon;timestamp;pressure;altitude;pressure_sealevel;temperature;humidity
36600;BME280;35385;55.668;37.508;2023-07-28T00:00:59;97843.19;;;20.92;100.00
36600;BME280;35385;55.668;37.508;2023-07-28T00:01:59;97840.22;;;20.93;100.00
36600;BME280;35385;55.668;37.508;2023-07-28T00:02:59;97841.63;;;20.96;100.00
36600;BME280;35385;55.668;37.508;2023-07-28T00:04:00;97844.13;;;20.97;100.00
36600;BME280;35385;55.668;37.508;2023-07-28T00:05:01;97840.56;;;20.97;100.00
36600;BME280;35385;55.668;37.508;2023-07-28T00:06:01;97850.97;;;21.00;100.00
36600;BME280;35385;55.668;37.508;2023-07-28T00:07:02;97850.59;;;20.96;100.00
36600;BME280;35385;55.668;37.508;2023-07-28T00:08:03;97860.63;;;20.96;100.00
36600;BME280;35385;55.668;37.508;2023-07-28T00:09:03;97866.06;;;20.96;100.00
36600;BME280;35385;55.668;37.508;2023-07-28T00:10:04;97862.28;;;20.97;100.00
36600;BME280;35385;55.668;37.508;2023-07-28T00:11:08;97874.56;;;20.99;100.00
36600;BME280;35385;55.668;37.508;2023-07-28T00:12:08;97879.75;;;21.01;100.00
36600;BME280;35385;55.668;37.508;2023-07-28T00:13:09;97883.31;;;21.01;100.00
36600;BME280;35385;55.668;37.508;2023-07-28T00:14:09;97877.63;;;21.03;100.00
36600;BME280;35385;55.668;37.508;2023-07-28T00:15:10;97876.44;;;20.99;100.00
36600;BME280;35385;55.668;37.508;2023-07-28T00:16:10;97875.38;;;21.00;100.00
36600;BME280;35385;55.668;37.508;2023-07-28T00:17:10;97877.03;;;21.01;100.00
36600;BME280;35385;55.668;37.508;2023-07-28T00:18:11;97882.47;;;21.01;100.00
36600;BME280;35385;55.668;37.508;2023-07-28T00:19:11;97887.78;;;20.96;100.00
36600;BME280;35385;55.668;37.508;2023-07-28T00:20:12;97896.13;;;20.94;100.00
36600;BME280;35385;55.668;37.508;2023-07-28T00:21:12;97903.22;;;20.95;100.00
36600;BME280;35385;55.668;37.508;2023-07-28T00:22:13;97899.91;;;20.93;100.00
36600;BME280;35385;55.668;37.508;2023-07-28T00:23:13;97906.16;;;20.94;100.00
36600;BME280;35385;55.668;37.508;2023-07-28T00:24:14;97900.75;;;20.94;100.00
36600;BME280;35385;55.668;37.508;2023-07-28T00:25:14;97902.63;;;20.93;100.00
36600;BME280;35385;55.668;37.508;2023-07-28T00:26:15;97899.91;;;20.93;100.00
36600;BME280;35385;55.668;37.508;2023-07-28T00:27:15;97913.47;;;20.93;100.00
36600;BME280;35385;55.668;37.508;2023-07-28T00:28:15;97910.91;;;20.87;100.00
36600;BME280;35385;55.668;37.508;2023-07-28T00:29:16;97914.91;;;20.84;100.00
36600;BME280;35385;55.668;37.508;2023-07-28T00:30:16;97915.50;;;20.86;100.00
36600;BME280;35385;55.668;37.508;2023-07-28T00:31:17;97914.66;;;20.86;100.00
36600;BME280;35385;55.668;37.508;2023-07-28T00:32:17;97919.03;;;20.87;100.00
36600;BME280;35385;55.668;37.508;2023-07-28T00:33:17;97911.50;;;20.89;100.00
36600;BME280;35385;55.668;37.508;2023-07-28T00:34:18;97917.16;;;20.87;100.00
36600;BME280;35385;55.668;37.508;2023-07-28T00:35:18;97914.66;;;20.86;100.00
36600;BME280;35385;55.668;37.508;2023-07-28T00:36:18;97911.34;;;20.83;100.00
36600;BME280;35385;55.668;37.508;2023-07-28T00:37:19;97913.00;;;20.85;100.00
36600;BME280;35385;55.668;37.508;2023-07-28T00:38:19;97911.59;;;20.82;100.00
36600;BME280;35385;55.668;37.508;2023-07-28T00:39:19;97909.94;;;20.81;100.00
36600;BME280;35385;55.668;37.508;2023-07-28T00:40:21;97905.56;;;20.80;100.00
36600;BME280;35385;55.668;37.508;2023-07-28T00:41:21;97900.97;;;20.80;100.00
36600;BME280;35385;55.668;37.508;2023-07-28T00:42:21;97892.22;;;20.78;100.00
36600;BME280;35385;55.668;37.508;2023-07-28T00:43:22;97885.19;;;20.77;100.00
36600;BME280;35385;55.668;37.508;2023-07-28T00:44:22;97881.38;;;20.78;100.00
36600;BME280;35385;55.668;37.508;2023-07-28T00:45:22;97882.22;;;20.79;100.00
36600;BME280;35385;55.668;37.508;2023-07-28T00:46:23;97883.03;;;20.79;100.00
36600;BME280;35385;55.668;37.508;2023-07-28T00:47:24;97880.91;;;20.81;100.00
36600;BME280;35385;55.668;37.508;2023-07-28T00:48:24;97884.47;;;20.82;100.00
36600;BME280;35385;55.668;37.508;2023-07-28T00:49:26;97887.41;;;20.80;100.00
36600;BME280;35385;55.668;37.508;2023-07-28T00:50:26;97876.56;;;20.80;100.00
36600;BME280;35385;55.668;37.508;2023-07-28T00:51:27;97883.88;;;20.80;100.00
36600;BME280;35385;55.668;37.508;2023-07-28T00:52:28;97885.50;;;20.81;100.00
36600;BME280;35385;55.668;37.508;2023-07-28T00:53:28;97871.34;;;20.79;100.00
36600;BME280;35385;55.668;37.508;2023-07-28T00:54:29;97874.34;;;20.77;100.00
36600;BME280;35385;55.668;37.508;2023-07-28T00:55:29;97869.38;;;20.74;100.00
36600;BME280;35385;55.668;37.508;2023-07-28T00:56:29;97877.97;;;20.71;100.00
36600;BME280;35385;55.668;37.508;2023-07-28T00:57:30;97868.19;;;20.70;100.00
36600;BME280;35385;55.668;37.508;2023-07-28T00:58:30;97877.38;;;20.69;100.00
36600;BME280;35385;55.668;37.508;2023-07-28T00:59:31;97876.78;;;20.67;100.00
36600;BME280;35385;55.668;37.508;2023-07-28T01:00:31;97879.50;;;20.67;100.00
36600;BME280;35385;55.668;37.508;2023-07-28T01:01:31;97874.28;;;20.66;100.00
36600;BME280;35385;55.668;37.508;2023-07-28T01:02:32;97875.34;;;20.65;100.00
36600;BME280;35385;55.668;37.508;2023-07-28T01:03:32;97879.94;;;20.64;100.00
36600;BME280;35385;55.668;37.508;2023-07-28T01:04:33;97883.25;;;20.66;100.00
36600;BME280;35385;55.668;37.508;2023-07-28T01:05:34;97874.53;;;20.64;100.00
36600;BME280;35385;55.668;37.508;2023-07-28T01:06:41;97874.88;;;20.68;100.00
36600;BME280;35385;55.668;37.508;2023-07-28T01:08:02;97875.72;;;20.68;100.00
36600;BME280;35385;55.668;37.508;2023-07-28T01:09:09;97865.69;;;20.69;100.00
36600;BME280;35385;55.668;37.508;2023-07-28T01:10:13;97864.03;;;20.68;100.00
36600;BME280;35385;55.668;37.508;2023-07-28T01:11:14;97856.72;;;20.68;100.00
36600;BME280;35385;55.668;37.508;2023-07-28T01:12:15;97868.19;;;20.70;100.00
36600;BME280;35385;55.668;37.508;2023-07-28T01:13:15;97862.75;;;20.70;100.00
36600;BME280;35385;55.668;37.508;2023-07-28T01:14:16;97863.34;;;20.72;100.00
36600;BME280;35385;55.668;37.508;2023-07-28T01:15:16;97865.00;;;20.73;100.00
36600;BME280;35385;55.668;37.508;2023-07-28T01:16:16;97867.72;;;20.73;100.00
36600;BME280;35385;55.668;37.508;2023-07-28T01:17:17;97873.13;;;20.73;100.00
36600;BME280;35385;55.668;37.508;2023-07-28T01:18:19;97862.75;;;20.70;100.00
36600;BME280;35385;55.668;37.508;2023-07-28T01:19:20;97866.06;;;20.72;100.00
36600;BME280;35385;55.668;37.508;2023-07-28T01:20:22;97855.22;;;20.72;100.00
36600;BME280;35385;55.668;37.508;2023-07-28T01:21:26;97853.56;;;20.71;100.00
36600;BME280;35385;55.668;37.508;2023-07-28T01:23:46;97852.72;;;20.71;100.00
36600;BME280;35385;55.668;37.508;2023-07-28T01:25:15;97848.97;;;20.72;100.00
36600;BME280;35385;55.668;37.508;2023-07-28T01:26:11;97849.78;;;20.72;100.00
36600;BME280;35385;55.668;37.508;2023-07-28T01:27:13;97847.66;;;20.74;100.00
36600;BME280;35385;55.668;37.508;2023-07-28T01:28:13;97847.66;;;20.74;100.00
36600;BME280;35385;55.668;37.508;2023-07-28T01:29:15;97846.84;;;20.74;100.00
36600;BME280;35385;55.668;37.508;2023-07-28T01:30:16;97841.19;;;20.75;100.00
36600;BME280;35385;55.668;37.508;2023-07-28T01:31:16;97845.56;;;20.76;100.00
36600;BME280;35385;55.668;37.508;2023-07-28T01:32:17;97832.56;;;20.78;100.00
36600;BME280;35385;55.668;37.508;2023-07-28T01:33:17;97842.56;;;20.78;100.00
36600;BME280;35385;55.668;37.508;2023-07-28T01:34:18;97835.03;;;20.80;100.00
36600;BME280;35385;55.668;37.508;2023-07-28T01:35:18;97833.16;;;20.80;100.00
36600;BME280;35385;55.668;37.508;2023-07-28T01:36:18;97830.94;;;20.77;100.00
36600;BME280;35385;55.668;37.508;2023-07-28T01:37:19;97839.84;;;20.78;100.00
36600;BME280;35385;55.668;37.508;2023-07-28T01:38:19;97838.47;;;20.75;100.00
36600;BME280;35385;55.668;37.508;2023-07-28T01:39:19;97831.63;;;20.73;100.00
36600;BME280;35385;55.668;37.508;2023-07-28T01:40:20;97826.66;;;20.70;100.00
36600;BME280;35385;55.668;37.508;2023-07-28T01:41:20;97825.84;;;20.69;100.00
36600;BME280;35385;55.668;37.508;2023-07-28T01:42:21;97828.53;;;20.69;100.00
36600;BME280;35385;55.668;37.508;2023-07-28T01:43:21;97821.00;;;20.71;100.00
36600;BME280;35385;55.668;37.508;2023-07-28T01:44:21;97822.66;;;20.72;100.00
36600;BME280;35385;55.668;37.508;2023-07-28T01:45:22;97829.75;;;20.73;100.00
36600;BME280;35385;55.668;37.508;2023-07-28T01:46:22;97829.28;;;20.76;100.00
36600;BME280;35385;55.668;37.508;2023-07-28T01:47:22;97827.13;;;20.78;100.00
36600;BME280;35385;55.668;37.508;2023-07-28T01:48:23;97827.13;;;20.78;100.00
36600;BME280;35385;55.668;37.508;2023-07-28T01:49:23;97822.53;;;20.79;100.00
36600;BME280;35385;55.668;37.508;2023-07-28T01:50:24;97824.19;;;20.80;100.00
36600;BME280;35385;55.668;37.508;2023-07-28T01:51:24;97817.94;;;20.79;100.00
36600;BME280;35385;55.668;37.508;2023-07-28T01:52:24;97802.84;;;20.72;100.00
36600;BME280;35385;55.668;37.508;2023-07-28T01:53:25;97819.59;;;20.80;100.00
36600;BME280;35385;55.668;37.508;2023-07-28T01:54:25;97819.94;;;20.84;100.00
36600;BME280;35385;55.668;37.508;2023-07-28T01:55:26;97816.41;;;20.83;100.00
36600;BME280;35385;55.668;37.508;2023-07-28T01:56:27;97819.72;;;20.86;100.00
36600;BME280;35385;55.668;37.508;2023-07-28T01:57:27;97817.00;;;20.86;100.00
36600;BME280;35385;55.668;37.508;2023-07-28T01:58:27;97818.88;;;20.85;100.00
36600;BME280;35385;55.668;37.508;2023-07-28T01:59:28;97817.00;;;20.86;100.00
36600;BME280;35385;55.668;37.508;2023-07-28T02:00:28;97821.38;;;20.87;100.00
36600;BME280;35385;55.668;37.508;2023-07-28T02:01:29;97825.72;;;20.88;100.00
36600;BME280;35385;55.668;37.508;2023-07-28T02:02:29;97816.75;;;20.87;100.00
36600;BME280;35385;55.668;37.508;2023-07-28T02:03:29;97817.81;;;20.86;100.00
36600;BME280;35385;55.668;37.508;2023-07-28T02:04:30;97824.31;;;20.85;100.00
36600;BME280;35385;55.668;37.508;2023-07-28T02:05:30;97828.31;;;20.82;100.00
36600;BME280;35385;55.668;37.508;2023-07-28T02:06:31;97827.50;;;20.82;100.00
36600;BME280;35385;55.668;37.508;2023-07-28T02:07:31;97824.53;;;20.83;100.00
36600;BME280;35385;55.668;37.508;2023-07-28T02:08:32;97834.56;;;20.83;100.00
36600;BME280;35385;55.668;37.508;2023-07-28T02:09:32;97822.66;;;20.84;100.00
36600;BME280;35385;55.668;37.508;2023-07-28T02:10:33;97819.13;;;20.83;100.00
36600;BME280;35385;55.668;37.508;2023-07-28T02:11:33;97816.41;;;20.83;100.00
36600;BME280;35385;55.668;37.508;2023-07-28T02:12:33;97817.00;;;20.86;100.00
36600;BME280;35385;55.668;37.508;2023-07-28T02:13:34;97806.16;;;20.86;100.00
36600;BME280;35385;55.668;37.508;2023-07-28T02:14:34;97804.25;;;20.86;100.00
36600;BME280;35385;55.668;37.508;2023-07-28T02:15:34;97799.06;;;20.85;100.00
36600;BME280;35385;55.668;37.508;2023-07-28T02:16:35;97812.63;;;20.85;100.00
36600;BME280;35385;55.668;37.508;2023-07-28T02:17:35;97818.06;;;20.85;100.00
36600;BME280;35385;55.668;37.508;2023-07-28T02:18:35;97813.31;;;20.80;100.00
36600;BME280;35385;55.668;37.508;2023-07-28T02:19:36;97806.00;;;20.80;100.00
36600;BME280;35385;55.668;37.508;2023-07-28T02:20:36;97804.13;;;20.81;100.00
36600;BME280;35385;55.668;37.508;2023-07-28T02:21:37;97816.88;;;20.80;100.00
36600;BME280;35385;55.668;37.508;2023-07-28T02:22:41;97823.34;;;20.79;100.00
36600;BME280;35385;55.668;37.508;2023-07-28T02:23:42;97817.38;;;20.77;100.00
36600;BME280;35385;55.668;37.508;2023-07-28T02:24:42;97813.00;;;20.76;100.00
36600;BME280;35385;55.668;37.508;2023-07-28T02:25:43;97814.66;;;20.77;100.00
36600;BME280;35385;55.668;37.508;2023-07-28T02:26:43;97824.19;;;20.80;100.00
36600;BME280;35385;55.668;37.508;2023-07-28T02:27:43;97819.13;;;20.83;100.00
36600;BME280;35385;55.668;37.508;2023-07-28T02:28:44;97817.81;;;20.86;100.00
36600;BME280;35385;55.668;37.508;2023-07-28T02:29:44;97818.19;;;20.90;100.00
36600;BME280;35385;55.668;37.508;2023-07-28T02:30:45;97819.34;;;20.94;100.00
36600;BME280;35385;55.668;37.508;2023-07-28T02:31:46;97821.00;;;20.95;100.00
36600;BME280;35385;55.668;37.508;2023-07-28T02:32:46;97830.19;;;20.94;100.00
36600;BME280;35385;55.668;37.508;2023-07-28T02:33:46;97824.19;;;20.92;100.00
36600;BME280;35385;55.668;37.508;2023-07-28T02:34:47;97826.41;;;20.95;100.00
36600;BME280;35385;55.668;37.508;2023-07-28T02:35:47;97823.09;;;20.93;100.00
36600;BME280;35385;55.668;37.508;2023-07-28T02:36:48;97833.41;;;20.91;100.00
36600;BME280;35385;55.668;37.508;2023-07-28T02:37:48;97843.66;;;20.89;100.00
36600;BME280;35385;55.668;37.508;2023-07-28T02:38:48;97845.31;;;20.90;100.00
36600;BME280;35385;55.668;37.508;2023-07-28T02:39:49;97837.75;;;20.92;100.00
36600;BME280;35385;55.668;37.508;2023-07-28T02:40:49;97845.66;;;20.93;100.00
36600;BME280;35385;55.668;37.508;2023-07-28T02:41:50;97839.66;;;20.91;100.00
36600;BME280;35385;55.668;37.508;2023-07-28T02:42:50;97848.34;;;20.93;100.00
36600;BME280;35385;55.668;37.508;2023-07-28T02:43:50;97862.41;;;20.90;100.00
36600;BME280;35385;55.668;37.508;2023-07-28T02:44:51;97871.63;;;20.89;100.00
36600;BME280;35385;55.668;37.508;2023-07-28T02:45:54;97874.09;;;20.91;100.00
36600;BME280;35385;55.668;37.508;2023-07-28T02:46:55;97878.94;;;20.89;100.00
36600;BME280;35385;55.668;37.508;2023-07-28T02:47:56;97868.69;;;20.91;100.00
36600;BME280;35385;55.668;37.508;2023-07-28T02:48:56;97867.13;;;20.95;100.00
36600;BME280;35385;55.668;37.508;2023-07-28T02:49:57;97869.13;;;20.99;100.00
36600;BME280;35385;55.668;37.508;2023-07-28T02:50:57;97868.44;;;21.04;100.00
36600;BME280;35385;55.668;37.508;2023-07-28T02:51:58;97860.06;;;21.05;100.00
36600;BME280;35385;55.668;37.508;2023-07-28T02:52:59;97864.31;;;21.01;100.00
36600;BME280;35385;55.668;37.508;2023-07-28T02:53:59;97869.25;;;20.93;100.00
36600;BME280;35385;55.668;37.508;2023-07-28T02:55:00;97860.75;;;20.89;100.00
36600;BME280;35385;55.668;37.508;2023-07-28T02:56:00;97868.78;;;20.84;100.00
36600;BME280;35385;55.668;37.508;2023-07-28T02:57:01;97869.47;;;20.79;100.00
36600;BME280;35385;55.668;37.508;2023-07-28T02:58:01;97867.25;;;20.76;100.00
36600;BME280;35385;55.668;37.508;2023-07-28T02:59:01;97855.81;;;20.74;100.00
36600;BME280;35385;55.668;37.508;2023-07-28T03:00:02;97847.19;;;20.77;100.00
36600;BME280;35385;55.668;37.508;2023-07-28T03:01:05;97836.59;;;20.76;100.00
36600;BME280;35385;55.668;37.508;2023-07-28T03:02:06;97840.13;;;20.76;100.00
36600;BME280;35385;55.668;37.508;2023-07-28T03:03:06;97840.94;;;20.77;100.00
36600;BME280;35385;55.668;37.508;2023-07-28T03:04:07;97841.78;;;20.77;100.00
36600;BME280;35385;55.668;37.508;2023-07-28T03:05:07;97841.78;;;20.77;100.00
36600;BME280;35385;55.668;37.508;2023-07-28T03:06:08;97835.84;;;20.80;100.00
36600;BME280;35385;55.668;37.508;2023-07-28T03:07:08;97835.84;;;20.80;100.00
36600;BME280;35385;55.668;37.508;2023-07-28T03:08:08;97839.63;;;20.79;100.00
36600;BME280;35385;55.668;37.508;2023-07-28T03:09:09;97863.47;;;20.77;100.00
36600;BME280;35385;55.668;37.508;2023-07-28T03:10:09;97860.75;;;20.77;100.00
36600;BME280;35385;55.668;37.508;2023-07-28T03:11:12;97872.69;;;20.76;100.00
36600;BME280;35385;55.668;37.508;2023-07-28T03:12:13;97896.03;;;20.77;100.00
36600;BME280;35385;55.668;37.508;2023-07-28T03:13:13;97897.09;;;20.76;100.00
36600;BME280;35385;55.668;37.508;2023-07-28T03:14:13;97906.28;;;20.75;100.00
36600;BME280;35385;55.668;37.508;2023-07-28T03:15:14;97913.59;;;20.75;100.00
36600;BME280;35385;55.668;37.508;2023-07-28T03:16:14;97910.28;;;20.73;100.00
36600;BME280;35385;55.668;37.508;2023-07-28T03:17:14;97919.25;;;20.73;100.00
36600;BME280;35385;55.668;37.508;2023-07-28T03:18:15;97913.38;;;20.76;100.00
36600;BME280;35385;55.668;37.508;2023-07-28T03:19:15;97916.66;;;20.78;100.00
36600;BME280;35385;55.668;37.508;2023-07-28T03:20:17;97905.94;;;20.83;100.00
36600;BME280;35385;55.668;37.508;2023-07-28T03:21:18;97892.13;;;20.85;100.00
36600;BME280;35385;55.668;37.508;2023-07-28T03:22:18;97874.34;;;20.89;100.00
36600;BME280;35385;55.668;37.508;2023-07-28T03:23:18;97876.09;;;20.95;100.00
36600;BME280;35385;55.668;37.508;2023-07-28T03:24:19;97885.19;;;21.01;100.00
36600;BME280;35385;55.668;37.508;2023-07-28T03:25:19;97872.22;;;21.03;100.00
36600;BME280;35385;55.668;37.508;2023-07-28T03:26:20;97871.75;;;21.06;100.00
36600;BME280;35385;55.668;37.508;2023-07-28T03:27:20;97877.63;;;21.03;100.00
36600;BME280;35385;55.668;37.508;2023-07-28T03:28:21;97891.81;;;21.05;100.00
36600;BME280;35385;55.668;37.508;2023-07-28T03:29:21;97892.63;;;21.05;100.00
36600;BME280;35385;55.668;37.508;2023-07-28T03:30:22;97899.69;;;21.06;100.00
36600;BME280;35385;55.668;37.508;2023-07-28T03:31:22;97898.88;;;21.06;100.00
36600;BME280;35385;55.668;37.508;2023-07-28T03:32:22;97886.94;;;21.07;100.00
36600;BME280;35385;55.668;37.508;2023-07-28T03:33:23;97892.97;;;21.09;100.00
36600;BME280;35385;55.668;37.508;2023-07-28T03:34:23;97897.56;;;21.08;100.00
36600;BME280;35385;55.668;37.508;2023-07-28T03:35:24;97907.59;;;21.08;100.00
36600;BME280;35385;55.668;37.508;2023-07-28T03:36:24;97921.88;;;21.03;100.00
36600;BME280;35385;55.668;37.508;2023-07-28T03:37:25;97939.69;;;20.99;100.00
36600;BME280;35385;55.668;37.508;2023-07-28T03:38:25;97945.59;;;20.96;100.00
36600;BME280;35385;55.668;37.508;2023-07-28T03:39:25;97955.59;;;20.96;100.00
36600;BME280;35385;55.668;37.508;2023-07-28T03:40:26;97979.66;;;20.92;100.00
36600;BME280;35385;55.668;37.508;2023-07-28T03:41:26;97986.41;;;20.90;100.00
36600;BME280;35385;55.668;37.508;2023-07-28T03:42:26;97996.66;;;20.88;100.00
36600;BME280;35385;55.668;37.508;2023-07-28T03:43:27;98021.53;;;20.85;100.00
36600;BME280;35385;55.668;37.508;2023-07-28T03:44:27;98033.69;;;20.82;100.00
36600;BME280;35385;55.668;37.508;2023-07-28T03:45:28;98047.13;;;20.77;100.00
36600;BME280;35385;55.668;37.508;2023-07-28T03:46:28;98074.34;;;20.70;100.00
36600;BME280;35385;55.668;37.508;2023-07-28T03:47:28;98092.00;;;20.61;100.00
36600;BME280;35385;55.668;37.508;2023-07-28T03:48:29;98117.63;;;20.47;100.00
36600;BME280;35385;55.668;37.508;2023-07-28T03:49:29;98116.38;;;20.25;100.00
36600;BME280;35385;55.668;37.508;2023-07-28T03:50:30;98087.72;;;19.74;100.00
36600;BME280;35385;55.668;37.508;2023-07-28T03:51:30;98079.81;;;19.48;100.00
36600;BME280;35385;55.668;37.508;2023-07-28T03:52:30;98084.00;;;19.43;100.00
36600;BME280;35385;55.668;37.508;2023-07-28T03:53:31;98080.50;;;19.36;100.00
36600;BME280;35385;55.668;37.508;2023-07-28T03:54:31;98058.72;;;19.31;100.00
36600;BME280;35385;55.668;37.508;2023-07-28T03:55:31;98049.53;;;19.32;100.00
36600;BME280;35385;55.668;37.508;2023-07-28T03:56:32;98040.69;;;19.43;100.00
36600;BME280;35385;55.668;37.508;2023-07-28T03:57:32;98034.59;;;19.48;100.00
36600;BME280;35385;55.668;37.508;2023-07-28T03:58:33;98023.53;;;19.31;100.00
36600;BME280;35385;55.668;37.508;2023-07-28T03:59:33;98024.63;;;19.24;100.00
36600;BME280;35385;55.668;37.508;2023-07-28T04:00:33;98015.06;;;19.21;100.00
36600;BME280;35385;55.668;37.508;2023-07-28T04:01:34;97995.28;;;19.21;100.00
36600;BME280;35385;55.668;37.508;2023-07-28T04:02:34;97981.00;;;19.14;100.00
36600;BME280;35385;55.668;37.508;2023-07-28T04:03:34;97961.28;;;19.06;100.00
36600;BME280;35385;55.668;37.508;2023-07-28T04:04:35;97933.56;;;19.11;100.00
36600;BME280;35385;55.668;37.508;2023-07-28T04:05:36;97887.78;;;19.10;100.00
36600;BME280;35385;55.668;37.508;2023-07-28T04:07:41;97850.66;;;19.17;100.00
36600;BME280;35385;55.668;37.508;2023-07-28T04:08:42;97839.47;;;19.13;100.00
36600;BME280;35385;55.668;37.508;2023-07-28T04:09:42;97820.22;;;19.21;100.00
36600;BME280;35385;55.668;37.508;2023-07-28T04:10:43;97795.34;;;19.31;100.00
36600;BME280;35385;55.668;37.508;2023-07-28T04:11:43;97790.88;;;19.36;100.00
36600;BME280;35385;55.668;37.508;2023-07-28T04:12:44;97781.84;;;19.42;100.00
36600;BME280;35385;55.668;37.508;2023-07-28T04:13:44;97770.59;;;19.46;100.00
36600;BME280;35385;55.668;37.508;2023-07-28T04:14:44;97767.03;;;19.45;100.00
36600;BME280;35385;55.668;37.508;2023-07-28T04:15:45;97740.50;;;19.35;100.00
36600;BME280;35385;55.668;37.508;2023-07-28T04:16:45;97739.31;;;19.31;100.00
36600;BME280;35385;55.668;37.508;2023-07-28T04:17:45;97727.69;;;19.31;100.00
36600;BME280;35385;55.668;37.508;2023-07-28T04:18:46;97724.75;;;19.32;100.00
36600;BME280;35385;55.668;37.508;2023-07-28T04:19:46;97723.53;;;19.28;100.00
36600;BME280;35385;55.668;37.508;2023-07-28T04:20:46;97719.25;;;19.21;100.00
36600;BME280;35385;55.668;37.508;2023-07-28T04:21:47;97717.47;;;19.15;100.00
36600;BME280;35385;55.668;37.508;2023-07-28T04:22:47;97716.31;;;19.22;100.00
36600;BME280;35385;55.668;37.508;2023-07-28T04:23:48;97723.63;;;19.22;100.00
36600;BME280;35385;55.668;37.508;2023-07-28T04:24:48;97743.84;;;19.19;100.00
36600;BME280;35385;55.668;37.508;2023-07-28T04:25:48;97744.44;;;19.21;100.00
36600;BME280;35385;55.668;37.508;2023-07-28T04:26:49;97743.53;;;19.27;100.00
36600;BME280;35385;55.668;37.508;2023-07-28T04:27:49;97734.03;;;19.36;100.00
36600;BME280;35385;55.668;37.508;2023-07-28T04:28:50;97732.09;;;19.43;100.00
36600;BME280;35385;55.668;37.508;2023-07-28T04:29:50;97725.53;;;19.51;100.00
36600;BME280;35385;55.668;37.508;2023-07-28T04:30:50;97724.41;;;19.59;100.00
36600;BME280;35385;55.668;37.508;2023-07-28T04:31:51;97729.94;;;19.64;100.00
36600;BME280;35385;55.668;37.508;2023-07-28T04:32:51;97736.31;;;19.69;100.00
36600;BME280;35385;55.668;37.508;2023-07-28T04:33:52;97744.28;;;19.64;100.00
36600;BME280;35385;55.668;37.508;2023-07-28T04:34:52;97748.31;;;19.62;100.00
36600;BME280;35385;55.668;37.508;2023-07-28T04:35:53;97762.31;;;19.59;100.00
36600;BME280;35385;55.668;37.508;2023-07-28T04:36:54;97777.81;;;19.52;100.00
36600;BME280;35385;55.668;37.508;2023-07-28T04:37:55;97775.78;;;19.47;100.00
36600;BME280;35385;55.668;37.508;2023-07-28T04:38:55;97785.16;;;19.45;100.00
36600;BME280;35385;55.668;37.508;2023-07-28T04:39:55;97780.81;;;19.43;100.00
36600;BME280;35385;55.668;37.508;2023-07-28T04:40:56;97778.72;;;19.27;100.00
36600;BME280;35385;55.668;37.508;2023-07-28T04:41:56;97776.91;;;19.21;100.00
36600;BME280;35385;55.668;37.508;2023-07-28T04:42:56;97768.66;;;19.16;100.00
36600;BME280;35385;55.668;37.508;2023-07-28T04:43:57;97771.50;;;19.21;100.00
36600;BME280;35385;55.668;37.508;2023-07-28T04:44:57;97776.09;;;19.21;100.00
36600;BME280;35385;55.668;37.508;2023-07-28T04:45:58;97776.19;;;19.14;100.00
36600;BME280;35385;55.668;37.508;2023-07-28T04:46:58;97784.56;;;19.24;100.00
36600;BME280;35385;55.668;37.508;2023-07-28T04:47:58;97784.63;;;19.36;100.00
36600;BME280;35385;55.668;37.508;2023-07-28T04:48:59;97790.34;;;19.46;100.00
36600;BME280;35385;55.668;37.508;2023-07-28T04:49:59;97794.81;;;19.59;100.00
36600;BME280;35385;55.668;37.508;2023-07-28T04:51:00;97792.59;;;19.67;100.00
36600;BME280;35385;55.668;37.508;2023-07-28T04:52:00;97795.44;;;19.72;100.00
36600;BME280;35385;55.668;37.508;2023-07-28T04:53:00;97790.50;;;19.81;100.00
36600;BME280;35385;55.668;37.508;2023-07-28T04:54:01;97794.09;;;19.93;100.00
36600;BME280;35385;55.668;37.508;2023-07-28T04:55:01;97802.50;;;20.03;100.00
36600;BME280;35385;55.668;37.508;2023-07-28T04:56:02;97805.88;;;19.99;100.00
36600;BME280;35385;55.668;37.508;2023-07-28T04:57:03;97800.13;;;20.07;100.00
36600;BME280;35385;55.668;37.508;2023-07-28T04:58:04;97799.34;;;20.18;100.00
36600;BME280;35385;55.668;37.508;2023-07-28T04:59:04;97805.69;;;20.12;100.00
36600;BME280;35385;55.668;37.508;2023-07-28T05:00:06;97804.16;;;20.04;100.00
36600;BME280;35385;55.668;37.508;2023-07-28T05:01:06;97808.63;;;20.10;100.00
36600;BME280;35385;55.668;37.508;2023-07-28T05:02:09;97809.44;;;20.11;100.00
36600;BME280;35385;55.668;37.508;2023-07-28T05:03:09;97817.00;;;20.21;100.00
36600;BME280;35385;55.668;37.508;2023-07-28T05:04:10;97823.41;;;20.26;100.00
36600;BME280;35385;55.668;37.508;2023-07-28T05:05:10;97819.50;;;20.22;100.00
36600;BME280;35385;55.668;37.508;2023-07-28T05:06:10;97823.41;;;20.26;100.00
36600;BME280;35385;55.668;37.508;2023-07-28T05:07:12;97824.69;;;20.24;100.00
36600;BME280;35385;55.668;37.508;2023-07-28T05:08:12;97834.97;;;20.33;100.00
36600;BME280;35385;55.668;37.508;2023-07-28T05:09:13;97839.84;;;20.43;100.00
36600;BME280;35385;55.668;37.508;2023-07-28T05:10:13;97838.09;;;20.49;100.00
36600;BME280;35385;55.668;37.508;2023-07-28T05:11:13;97843.19;;;20.27;100.00
36600;BME280;35385;55.668;37.508;2023-07-28T05:12:14;97845.53;;;20.23;100.00
36600;BME280;35385;55.668;37.508;2023-07-28T05:13:14;97844.00;;;20.16;100.00
36600;BME280;35385;55.668;37.508;2023-07-28T05:14:14;97846.78;;;20.09;100.00
36600;BME280;35385;55.668;37.508;2023-07-28T05:15:15;97854.09;;;20.08;100.00
36600;BME280;35385;55.668;37.508;2023-07-28T05:16:15;97853.84;;;19.98;100.00